Time;durP1;ratioP1;P1;durP2;ratioP2;P2;SDS_P1;SDS_P2;PMS_P1;PMS_P2;Temp;Humidity;BMP_temperature;BMP_pressure;BME280_temperature;BME280_humidity;BME280_pressure;Samples;Min_cycle;Max_cycle;Signal;HPM_P1;HPM_P2
2024/02/22 00:02:04;;;;;;;28.92;11.98;;;;;;;-1.68;72.56;99828.22;5026893;28;20077;-47
2024/02/22 00:04:31;;;;;;;23.85;10.23;;;;;;;-1.68;72.63;99819.72;5025835;28;20353;-51
2024/02/22 00:06:57;;;;;;;25.75;10.77;;;;;;;-1.96;72.52;99783.59;5025275;28;20533;-51
2024/02/22 00:09:23;;;;;;;27.65;10.88;;;;;;;-1.72;72.97;99817.09;5007958;28;20056;-54
2024/02/22 00:11:50;;;;;;;28.50;11.55;;;;;;;-1.77;72.98;99816.19;5023552;28;20517;-51
2024/02/22 00:14:16;;;;;;;26.88;11.05;;;;;;;-1.73;72.93;99822.19;5022657;28;20052;-51
2024/02/22 00:16:42;;;;;;;29.55;10.48;;;;;;;-1.71;72.56;99823.06;4988113;28;20156;-50
2024/02/22 00:19:09;;;;;;;25.63;10.30;;;;;;;-1.66;72.89;99818.91;5012543;28;20493;-55
2024/02/22 00:21:36;;;;;;;27.60;11.48;;;;;;;-1.60;72.70;99820.69;5024363;28;20069;-51
2024/02/22 00:24:02;;;;;;;22.92;9.55;;;;;;;-1.64;72.49;99818.94;5025926;28;20041;-50
2024/02/22 00:26:28;;;;;;;27.70;11.32;;;;;;;-1.73;72.66;99819.66;5024751;28;20048;-52
2024/02/22 00:28:54;;;;;;;25.90;11.40;;;;;;;-1.74;72.81;99823.88;5024977;28;20132;-50
2024/02/22 00:31:20;;;;;;;25.52;9.02;;;;;;;-1.76;72.76;99809.38;5024626;28;20111;-54
2024/02/22 00:33:46;;;;;;;25.08;10.85;;;;;;;-1.77;72.92;99821.28;5025666;28;20084;-52
2024/02/22 00:36:12;;;;;;;20.00;9.00;;;;;;;-1.82;72.91;99814.38;5024233;28;20847;-55
2024/02/22 00:38:40;;;;;;;25.85;10.95;;;;;;;-1.82;73.25;99820.34;5024848;28;20041;-48
2024/02/22 00:41:06;;;;;;;26.85;11.32;;;;;;;-1.79;73.18;99817.84;5024793;28;20048;-52
2024/02/22 00:43:32;;;;;;;24.15;10.73;;;;;;;-1.88;73.15;99781.16;4989219;28;20084;-49
2024/02/22 00:45:58;;;;;;;21.98;9.27;;;;;;;-1.66;72.72;99821.44;5025582;28;20041;-53
2024/02/22 00:48:24;;;;;;;17.60;8.95;;;;;;;-1.76;72.97;99814.47;5026262;28;20047;-50
2024/02/22 00:50:50;;;;;;;24.90;10.32;;;;;;;-1.81;73.02;99813.56;5023860;28;20088;-54
2024/02/22 00:53:17;;;;;;;22.60;10.38;;;;;;;-1.81;73.10;99811.88;5007989;28;20052;-48
2024/02/22 00:55:43;;;;;;;25.80;10.50;;;;;;;-1.87;73.42;99796.47;5024723;28;20197;-55
2024/02/22 00:58:10;;;;;;;22.52;9.52;;;;;;;-1.83;73.06;99798.22;5008343;28;20057;-51
2024/02/22 01:00:37;;;;;;;28.45;10.65;;;;;;;-1.82;73.68;99796.53;5024446;28;20523;-54
2024/02/22 01:03:04;;;;;;;26.55;10.90;;;;;;;-2.02;73.41;99764.78;5024319;28;20037;-55
2024/02/22 01:06:02;;;;;;;24.83;9.40;;;;;;;-1.90;73.55;99786.25;5024956;28;20038;-54
2024/02/22 01:08:28;;;;;;;24.88;10.23;;;;;;;-1.93;74.06;99792.94;5021238;28;20067;-50
2024/02/22 01:10:54;;;;;;;27.08;10.85;;;;;;;-1.94;74.21;99799.75;5046281;28;20046;-51
2024/02/22 01:13:22;;;;;;;24.70;11.45;;;;;;;-1.97;74.16;99786.97;5015657;28;20070;-49
2024/02/22 01:15:48;;;;;;;35.38;11.40;;;;;;;-2.18;74.36;99749.25;5023780;28;20797;-52
2024/02/22 01:18:14;;;;;;;31.25;12.45;;;;;;;-1.85;74.24;99786.31;5021845;28;20144;-50
2024/02/22 01:20:40;;;;;;;25.38;10.18;;;;;;;-1.81;73.98;99790.63;5006756;28;20052;-54
2024/02/22 01:23:06;;;;;;;27.13;11.35;;;;;;;-1.81;74.22;99788.94;5022627;28;20049;-50
2024/02/22 01:25:32;;;;;;;26.17;9.68;;;;;;;-1.67;74.10;99788.31;5023390;28;20077;-50
2024/02/22 01:27:58;;;;;;;23.52;9.35;;;;;;;-1.71;74.07;99775.50;5022858;28;20064;-53
2024/02/22 01:30:24;;;;;;;26.58;10.45;;;;;;;-1.76;73.83;99777.13;5025856;28;20092;-51
2024/02/22 01:32:49;;;;;;;26.60;10.93;;;;;;;-1.76;73.85;99774.56;5024194;28;20476;-51
2024/02/22 01:35:18;;;;;;;26.67;11.40;;;;;;;-1.72;74.05;99772.94;5024261;28;20553;-50
2024/02/22 01:37:44;;;;;;;28.20;10.25;;;;;;;-1.62;73.82;99772.22;5024665;28;20721;-51
2024/02/22 01:40:12;;;;;;;22.95;10.52;;;;;;;-1.67;74.06;99775.56;5024109;28;20071;-54
2024/02/22 01:42:43;;;;;;;25.10;10.07;;;;;;;-1.63;73.70;99774.78;5023769;28;20048;-50
2024/02/22 01:45:10;;;;;;;26.63;10.75;;;;;;;-1.72;73.58;99773.78;5024820;28;20064;-51
2024/02/22 01:47:36;;;;;;;24.10;9.30;;;;;;;-1.80;73.63;99762.63;5023678;28;20535;-51
2024/02/22 01:50:03;;;;;;;27.38;10.20;;;;;;;-1.71;73.68;99777.19;5024869;28;20041;-52
2024/02/22 01:52:30;;;;;;;21.67;8.45;;;;;;;-1.96;73.60;99735.19;5024311;28;20041;-50
2024/02/22 01:54:56;;;;;;;27.55;11.82;;;;;;;-1.74;73.75;99762.72;5008030;28;20415;-52
2024/02/22 01:57:22;;;;;;;21.10;8.05;;;;;;;-1.93;73.54;99732.66;5055584;28;20045;-49
2024/02/22 01:59:47;;;;;;;22.20;10.07;;;;;;;-2.00;73.56;99723.22;5007472;28;20602;-54
2024/02/22 02:02:13;;;;;;;23.95;10.13;;;;;;;-1.72;74.08;99770.38;5024116;28;20041;-50
2024/02/22 02:04:40;;;;;;;24.05;8.68;;;;;;;-1.77;73.64;99754.16;5025484;28;20095;-53
2024/02/22 02:07:08;;;;;;;23.58;10.07;;;;;;;-1.74;73.85;99749.13;5007491;28;20037;-54
2024/02/22 02:09:34;;;;;;;26.70;9.63;;;;;;;-1.82;73.67;99741.34;5025454;28;20090;-50
2024/02/22 02:12:00;;;;;;;20.83;8.23;;;;;;;-1.83;73.95;99739.63;5025750;28;20045;-52
2024/02/22 02:14:26;;;;;;;27.33;10.30;;;;;;;-1.82;73.87;99737.94;5026232;28;20045;-50
2024/02/22 02:16:52;;;;;;;25.90;9.85;;;;;;;-1.81;73.99;99735.44;5021294;28;20040;-54
2024/02/22 02:19:20;;;;;;;27.73;11.40;;;;;;;-1.75;73.76;99739.75;5016538;28;20055;-55
2024/02/22 02:22:10;;;;;;;26.10;10.45;;;;;;;-1.73;73.75;99736.38;5028589;28;20789;-51
2024/02/22 02:24:58;;;;;;;28.55;10.60;;;;;;;-1.72;73.62;99732.16;5027544;28;20033;-50
2024/02/22 02:27:24;;;;;;;28.25;10.05;;;;;;;-1.77;73.65;99728.69;5010309;28;20038;-49
2024/02/22 02:29:50;;;;;;;26.80;11.57;;;;;;;-1.72;73.63;99732.16;5010108;28;20464;-53
2024/02/22 02:32:16;;;;;;;29.80;11.73;;;;;;;-1.73;73.51;99728.75;5010514;28;20124;-56
2024/02/22 02:34:42;;;;;;;26.95;11.18;;;;;;;-1.66;73.56;99729.69;5028372;28;20034;-53
2024/02/22 02:37:07;;;;;;;25.95;10.45;;;;;;;-1.86;73.39;99693.72;5027354;28;20095;-52
2024/02/22 02:39:33;;;;;;;27.23;10.30;;;;;;;-1.65;73.11;99721.22;5026856;28;20128;-53
2024/02/22 02:41:59;;;;;;;23.50;9.95;;;;;;;-1.97;73.44;99686.75;5026926;28;20087;-52
2024/02/22 02:44:26;;;;;;;28.88;10.80;;;;;;;-1.75;73.63;99724.47;5026431;28;20060;-55
2024/02/22 02:46:51;;;;;;;23.63;8.93;;;;;;;-1.69;73.68;99729.66;5026371;28;20388;-56
2024/02/22 02:49:17;;;;;;;24.60;9.75;;;;;;;-1.90;73.46;99693.66;5028226;28;20591;-54
2024/02/22 02:51:44;;;;;;;28.92;10.45;;;;;;;-1.75;73.57;99712.59;5042670;28;20041;-56
2024/02/22 02:54:10;;;;;;;29.15;11.35;;;;;;;-1.73;73.61;99715.16;5028494;28;20041;-52
2024/02/22 02:56:35;;;;;;;25.50;11.20;;;;;;;-1.73;73.32;99718.56;5026644;28;20048;-50
2024/02/22 02:59:01;;;;;;;24.38;9.27;;;;;;;-1.74;73.44;99716.84;5027251;28;20091;-54
2024/02/22 03:01:27;;;;;;;29.55;11.13;;;;;;;-1.73;73.75;99717.72;5026312;28;20128;-49
2024/02/22 03:03:53;;;;;;;25.60;9.95;;;;;;;-1.68;73.41;99708.44;4993671;28;20045;-51
2024/02/22 03:06:19;;;;;;;22.88;10.18;;;;;;;-1.71;73.22;99716.03;5025591;28;20045;-57
2024/02/22 03:08:45;;;;;;;24.70;8.75;;;;;;;-1.74;73.56;99732.16;5026540;28;20033;-57
2024/02/22 03:11:10;;;;;;;27.10;11.18;;;;;;;-1.79;73.50;99718.47;5027449;28;20037;-54
2024/02/22 03:13:36;;;;;;;19.27;8.77;;;;;;;-1.81;73.39;99734.56;5027609;28;20826;-51
2024/02/22 03:16:04;;;;;;;25.85;10.57;;;;;;;-1.88;73.69;99731.06;5027848;28;20090;-56
2024/02/22 03:18:33;;;;;;;29.83;11.50;;;;;;;-1.86;73.98;99726.00;5026342;28;20174;-52
2024/02/22 03:21:00;;;;;;;19.88;8.43;;;;;;;-1.83;73.95;99724.34;5026234;28;20033;-54
2024/02/22 03:23:27;;;;;;;23.25;9.38;;;;;;;-1.89;73.92;99728.50;5026951;28;20076;-54
2024/02/22 03:25:53;;;;;;;22.13;9.30;;;;;;;-1.86;73.97;99731.94;5025873;28;20607;-60
2024/02/22 03:28:21;;;;;;;26.02;10.55;;;;;;;-2.21;74.16;99667.72;5025058;28;20109;-54
2024/02/22 03:30:47;;;;;;;30.02;10.60;;;;;;;-1.78;73.96;99738.00;5027325;28;20041;-54
2024/02/22 03:33:13;;;;;;;25.73;9.93;;;;;;;-1.80;73.94;99728.63;4993342;28;20059;-54
2024/02/22 03:35:39;;;;;;;27.73;9.40;;;;;;;-2.07;73.63;99695.94;5009484;28;20048;-56
2024/02/22 03:38:05;;;;;;;24.50;10.10;;;;;;;-1.92;73.83;99749.69;5025202;28;20601;-56
2024/02/22 03:40:31;;;;;;;26.10;10.30;;;;;;;-1.94;74.33;99742.84;5008151;28;20061;-51
2024/02/22 03:42:57;;;;;;;32.95;12.60;;;;;;;-1.93;74.48;99752.19;5025176;28;20080;-50
2024/02/22 03:45:23;;;;;;;26.80;11.70;;;;;;;-1.91;74.29;99751.41;5008934;28;20041;-53
2024/02/22 03:47:50;;;;;;;24.65;10.82;;;;;;;-1.88;74.29;99748.88;5024924;28;20124;-54
2024/02/22 03:50:16;;;;;;;19.70;8.55;;;;;;;-2.12;74.40;99728.13;5025137;28;20092;-54
2024/02/22 03:52:42;;;;;;;27.42;11.23;;;;;;;-2.02;74.42;99731.66;5008310;28;20136;-53
2024/02/22 03:55:09;;;;;;;24.88;9.88;;;;;;;-1.83;74.42;99752.38;5026519;28;20063;-53
2024/02/22 03:57:35;;;;;;;24.73;10.82;;;;;;;-2.02;74.19;99731.66;5025718;28;20045;-54
2024/02/22 04:00:04;;;;;;;23.08;9.57;;;;;;;-1.85;74.28;99750.66;5025401;28;20144;-54
2024/02/22 04:02:41;;;;;;;30.27;10.75;;;;;;;-1.75;73.97;99753.38;5022066;28;20037;-55
2024/02/22 04:05:08;;;;;;;27.05;10.43;;;;;;;-1.75;74.17;99760.16;5026106;28;20297;-52
2024/02/22 04:07:34;;;;;;;35.30;11.18;;;;;;;-1.79;74.11;99761.81;5023867;28;20090;-53
2024/02/22 04:10:01;;;;;;;31.83;11.52;;;;;;;-1.74;74.43;99756.78;5025864;28;20086;-52
2024/02/22 04:12:29;;;;;;;25.50;10.32;;;;;;;-1.59;74.11;99751.91;5025695;28;20044;-54
2024/02/22 04:14:55;;;;;;;30.45;11.68;;;;;;;-1.62;73.73;99754.41;5026722;28;20483;-53
2024/02/22 04:17:21;;;;;;;34.55;13.02;;;;;;;-1.64;73.99;99739.94;5018488;28;20636;-54
2024/02/22 04:19:48;;;;;;;51.85;18.52;;;;;;;-1.55;73.81;99740.91;5002552;28;20129;-56
2024/02/22 04:22:14;;;;;;;26.33;10.05;;;;;;;-1.52;73.65;99748.63;5007559;28;20094;-55
2024/02/22 04:24:40;;;;;;;34.00;12.32;;;;;;;-1.47;73.52;99748.69;5014005;28;20064;-51
2024/02/22 04:27:06;;;;;;;29.77;11.40;;;;;;;-1.68;73.21;99712.69;5033978;28;20102;-54
2024/02/22 04:29:32;;;;;;;32.22;11.95;;;;;;;-1.41;73.11;99752.16;5034239;28;20029;-53
2024/02/22 04:31:58;;;;;;;28.92;11.45;;;;;;;-1.40;73.02;99755.56;5033339;28;20045;-54
2024/02/22 04:34:24;;;;;;;30.45;10.18;;;;;;;-1.42;72.90;99757.28;5031892;28;20072;-56
2024/02/22 04:36:50;;;;;;;30.55;12.13;;;;;;;-1.48;72.94;99747.84;5033943;28;20068;-56
2024/02/22 04:39:16;;;;;;;31.05;11.32;;;;;;;-1.64;73.05;99715.31;5035958;28;20513;-51
2024/02/22 04:41:42;;;;;;;28.92;9.82;;;;;;;-1.52;73.04;99750.31;5015671;28;20120;-52
2024/02/22 04:44:09;;;;;;;28.60;10.93;;;;;;;-1.62;73.04;99738.28;5008568;28;20037;-52
2024/02/22 04:46:38;;;;;;;25.35;10.23;;;;;;;-1.59;73.23;99751.06;5025617;28;20041;-52
2024/02/22 04:49:05;;;;;;;27.20;11.10;;;;;;;-1.61;73.52;99758.66;5024548;28;20056;-51
2024/02/22 04:51:31;;;;;;;28.50;11.23;;;;;;;-1.62;73.48;99746.75;5023252;28;20041;-52
2024/02/22 04:53:57;;;;;;;33.42;12.65;;;;;;;-1.51;73.43;99749.47;5023578;28;20065;-53
2024/02/22 04:56:23;;;;;;;20.58;9.77;;;;;;;-1.42;73.26;99737.72;5008086;28;20519;-52
2024/02/22 04:58:49;;;;;;;24.30;10.02;;;;;;;-1.47;73.31;99749.56;5040353;28;20128;-53
2024/02/22 05:01:16;;;;;;;31.90;12.52;;;;;;;-1.57;73.33;99741.75;5025276;28;20508;-51
2024/02/22 05:03:43;;;;;;;28.88;11.85;;;;;;;-1.65;73.27;99738.22;5023914;28;20095;-54
2024/02/22 05:06:09;;;;;;;29.45;11.65;;;;;;;-1.54;73.50;99741.78;5023965;28;20049;-53
2024/02/22 05:08:36;;;;;;;32.13;12.35;;;;;;;-1.50;73.05;99749.50;5023337;28;20809;-53
2024/02/22 05:11:02;;;;;;;29.88;11.77;;;;;;;-1.44;73.48;99741.06;5006344;28;20042;-44
2024/02/22 05:13:28;;;;;;;32.88;12.35;;;;;;;-1.39;73.29;99742.84;5023937;28;20703;-47
2024/02/22 05:15:54;;;;;;;31.52;12.15;;;;;;;-1.35;73.12;99741.19;5006952;28;20045;-48
2024/02/22 05:18:20;;;;;;;29.85;10.98;;;;;;;-1.38;72.92;99744.59;5021568;28;20044;-52
2024/02/22 05:20:46;;;;;;;28.27;10.90;;;;;;;-1.46;72.72;99750.38;5022316;28;20136;-52
2024/02/22 05:23:13;;;;;;;33.70;12.65;;;;;;;-1.43;73.06;99747.91;5020951;28;20045;-51
2024/02/22 05:25:41;;;;;;;29.20;11.80;;;;;;;-1.42;72.59;99752.16;5006233;28;20434;-56
2024/02/22 05:28:08;;;;;;;30.02;11.32;;;;;;;-1.49;72.97;99756.31;5023937;28;20037;-54
2024/02/22 05:30:34;;;;;;;27.83;10.40;;;;;;;-1.69;73.07;99727.13;4990866;28;20053;-52
2024/02/22 05:33:01;;;;;;;32.03;12.93;;;;;;;-1.79;72.98;99710.84;5025107;28;20076;-53
2024/02/22 05:35:27;;;;;;;31.20;11.65;;;;;;;-1.39;73.30;99747.97;5025280;28;20045;-53
2024/02/22 05:37:53;;;;;;;29.75;11.40;;;;;;;-1.26;73.07;99760.88;5023655;28;20052;-53
2024/02/22 05:40:18;;;;;;;28.88;11.10;;;;;;;-1.23;72.61;99758.38;5024080;28;20045;-52
2024/02/22 05:42:44;;;;;;;34.08;12.77;;;;;;;-1.25;72.42;99755.78;5023880;28;20453;-52
2024/02/22 05:45:12;;;;;;;31.27;12.45;;;;;;;-1.52;72.37;99728.25;5025741;28;20048;-53
2024/02/22 05:47:39;;;;;;;27.73;10.93;;;;;;;-1.38;72.13;99764.97;5037333;28;20651;-48
2024/02/22 05:50:05;;;;;;;26.08;9.50;;;;;;;-1.66;72.28;99734.78;5023013;28;20042;-49
2024/02/22 05:52:31;;;;;;;29.02;10.93;;;;;;;-1.45;72.73;99759.75;5025763;28;20126;-50
2024/02/22 05:54:57;;;;;;;31.08;11.88;;;;;;;-1.42;72.93;99767.47;5028767;28;20107;-49
2024/02/22 05:57:22;;;;;;;37.22;13.23;;;;;;;-1.42;73.04;99758.13;5010747;28;20607;-51
2024/02/22 05:59:48;;;;;;;28.90;11.85;;;;;;;-1.50;73.10;99721.44;5009990;28;20045;-49
2024/02/22 06:02:14;;;;;;;26.67;9.90;;;;;;;-1.24;72.54;99757.50;5027150;28;20045;-49
2024/02/22 06:04:40;;;;;;;22.60;9.40;;;;;;;-1.28;72.18;99758.31;5027059;28;20515;-51
2024/02/22 06:07:07;;;;;;;19.50;7.97;;;;;;;-1.39;72.42;99763.25;5027136;28;20414;-54
2024/02/22 06:09:34;;;;;;;32.47;11.32;;;;;;;-1.46;72.79;99761.44;5010103;28;20103;-50
2024/02/22 06:12:00;;;;;;;36.30;13.50;;;;;;;-1.40;72.62;99769.19;5027264;28;20114;-52
2024/02/22 06:14:27;;;;;;;31.33;12.68;;;;;;;-1.39;72.48;99770.03;5027255;28;20072;-54
2024/02/22 06:16:52;;;;;;;30.35;12.30;;;;;;;-1.42;72.53;99763.22;5019821;28;20525;-53
2024/02/22 06:19:18;;;;;;;35.33;12.73;;;;;;;-1.48;72.56;99769.91;5023887;28;20043;-53
2024/02/22 06:21:44;;;;;;;35.88;13.48;;;;;;;-1.51;72.71;99767.31;4994383;28;20037;-52
2024/02/22 06:24:10;;;;;;;31.55;12.88;;;;;;;-1.46;72.99;99765.69;5027309;28;20041;-53
2024/02/22 06:26:37;;;;;;;29.48;11.13;;;;;;;-1.37;72.73;99765.84;5026899;28;20292;-54
2024/02/22 06:29:03;;;;;;;36.97;12.02;;;;;;;-1.54;73.11;99739.22;5026299;28;20037;-51
2024/02/22 06:31:29;;;;;;;41.92;13.20;;;;;;;-1.33;72.92;99768.44;5008086;28;20041;-50
2024/02/22 06:33:55;;;;;;;36.53;13.23;;;;;;;-1.34;72.38;99753.13;5026119;28;20052;-49
2024/02/22 06:36:21;;;;;;;33.30;11.07;;;;;;;-1.08;72.29;99768.78;5026804;28;20061;-57
2024/02/22 06:38:47;;;;;;;31.88;12.15;;;;;;;-1.16;71.97;99767.84;5026200;28;20052;-50
2024/02/22 06:41:18;;;;;;;35.67;11.77;;;;;;;-1.32;72.10;99752.31;5028508;28;20037;-49
2024/02/22 06:43:44;;;;;;;37.80;12.88;;;;;;;-1.18;72.12;99760.16;4994338;28;20597;-50
2024/02/22 06:46:11;;;;;;;27.63;10.40;;;;;;;-1.18;71.82;99762.69;5026755;28;20037;-53
2024/02/22 06:48:37;;;;;;;41.72;14.13;;;;;;;-1.40;72.08;99728.38;5014307;28;20515;-53
2024/02/22 06:51:03;;;;;;;41.38;14.98;;;;;;;-1.41;71.56;99728.34;5037893;28;20038;-55
2024/02/22 06:53:29;;;;;;;36.58;14.60;;;;;;;-1.10;72.24;99758.53;5002280;28;20037;-53
2024/02/22 06:55:54;;;;;;;40.85;14.93;;;;;;;-1.09;71.55;99757.72;5023689;28;20044;-54
2024/02/22 06:58:20;;;;;;;36.88;13.00;;;;;;;-1.12;71.52;99762.78;5009728;28;20842;-48
2024/02/22 07:00:46;;;;;;;40.33;13.80;;;;;;;-1.13;71.67;99762.75;5018045;28;20041;-54
2024/02/22 07:03:13;;;;;;;34.72;12.38;;;;;;;-1.10;71.97;99761.09;5034790;28;20052;-53
2024/02/22 07:05:39;;;;;;;29.85;11.90;;;;;;;-1.13;71.69;99724.50;5035935;28;20104;-57
2024/02/22 07:08:05;;;;;;;35.28;12.05;;;;;;;-1.19;71.66;99726.97;5035073;28;20053;-52
2024/02/22 07:10:31;;;;;;;44.03;13.98;;;;;;;-1.00;71.59;99764.66;5017106;28;20313;-56
2024/02/22 07:12:57;;;;;;;31.58;11.93;;;;;;;-0.92;71.33;99765.59;5035480;28;20051;-56
2024/02/22 07:15:23;;;;;;;30.67;11.57;;;;;;;-1.13;71.04;99745.75;5015077;28;20152;-49
2024/02/22 07:17:49;;;;;;;34.05;12.88;;;;;;;-1.02;71.29;99768.88;5025122;28;20056;-57
2024/02/22 07:20:15;;;;;;;37.78;12.52;;;;;;;-1.03;71.35;99772.25;5026529;28;20037;-57
2024/02/22 07:22:42;;;;;;;34.83;11.40;;;;;;;-1.14;71.12;99727.88;5025150;28;20041;-55
2024/02/22 07:25:11;;;;;;;37.42;13.07;;;;;;;-0.89;71.00;99773.31;5007607;28;20107;-52
2024/02/22 07:27:41;;;;;;;39.72;12.63;;;;;;;-0.94;71.19;99778.31;5025376;28;20042;-53
2024/02/22 07:30:08;;;;;;;28.50;11.48;;;;;;;-0.98;71.44;99776.56;5026046;28;20045;-57
2024/02/22 07:32:35;;;;;;;39.40;13.95;;;;;;;-0.85;71.38;99767.41;5006525;28;20068;-53
2024/02/22 07:35:02;;;;;;;33.83;12.50;;;;;;;-0.97;70.71;99740.03;5024533;28;20045;-52
2024/02/22 07:37:30;;;;;;;34.42;11.75;;;;;;;-0.64;70.58;99780.44;5009145;28;20056;-51
2024/02/22 07:39:55;;;;;;;33.85;12.20;;;;;;;-0.64;70.48;99777.00;5008440;28;20531;-51
2024/02/22 07:42:22;;;;;;;32.67;11.65;;;;;;;-0.59;70.68;99777.94;5026398;28;20408;-55
2024/02/22 07:44:48;;;;;;;31.05;11.27;;;;;;;-0.80;70.38;99745.34;5025226;28;20037;-57
2024/02/22 07:47:14;;;;;;;34.35;12.50;;;;;;;-0.57;70.28;99781.34;4992322;28;20045;-57
2024/02/22 07:49:41;;;;;;;31.33;12.07;;;;;;;-0.60;70.12;99781.31;5008374;28;20430;-50
2024/02/22 07:52:07;;;;;;;36.55;12.73;;;;;;;-0.73;69.79;99746.28;5008310;28;20073;-55
2024/02/22 07:54:33;;;;;;;37.92;14.50;;;;;;;-0.67;69.56;99756.53;5045470;28;20508;-53
2024/02/22 07:56:59;;;;;;;37.72;13.95;;;;;;;-0.41;69.67;99783.22;5008092;28;20496;-54
2024/02/22 07:59:25;;;;;;;29.95;11.05;;;;;;;-0.35;69.27;99787.53;5022882;28;20053;-54
2024/02/22 08:01:51;;;;;;;35.17;12.52;;;;;;;-0.50;69.10;99783.13;5026687;28;20042;-52
2024/02/22 08:04:17;;;;;;;35.15;10.95;;;;;;;-0.36;69.35;99784.13;5025490;28;20056;-53
2024/02/22 08:06:43;;;;;;;30.45;10.50;;;;;;;-0.43;69.03;99780.69;5026304;28;20375;-54
2024/02/22 08:09:09;;;;;;;31.65;12.73;;;;;;;-0.31;68.88;99776.50;5023881;28;20228;-55
2024/02/22 08:11:37;;;;;;;31.15;11.45;;;;;;;-0.31;68.42;99789.28;5007256;28;20041;-52
2024/02/22 08:14:03;;;;;;;31.88;13.48;;;;;;;-0.46;68.63;99790.84;5024801;28;20137;-53
2024/02/22 08:16:29;;;;;;;35.30;12.20;;;;;;;-0.49;69.08;99746.53;5022061;28;20128;-55
2024/02/22 08:18:55;;;;;;;33.25;13.75;;;;;;;-0.25;68.52;99753.59;5024552;28;20566;-54
2024/02/22 08:21:21;;;;;;;32.55;12.15;;;;;;;-0.09;68.61;99773.34;5024660;28;20037;-55
2024/02/22 08:23:51;;;;;;;38.00;13.88;;;;;;;-0.05;67.97;99777.63;5026691;28;20055;-55
2024/02/22 08:26:19;;;;;;;37.53;12.50;;;;;;;-0.32;67.90;99745.03;5025513;28;20084;-55
2024/02/22 08:28:45;;;;;;;34.97;14.05;;;;;;;-0.27;68.17;99761.25;5023713;28;20204;-53
2024/02/22 08:31:11;;;;;;;31.83;11.57;;;;;;;-0.11;67.88;99787.81;5024868;28;20038;-51
2024/02/22 08:33:37;;;;;;;37.35;14.25;;;;;;;-0.27;68.03;99750.19;5026020;28;20535;-52
2024/02/22 08:36:03;;;;;;;26.33;11.55;;;;;;;0.04;67.66;99779.44;4992349;28;20045;-55
2024/02/22 08:38:29;;;;;;;30.85;11.68;;;;;;;-0.14;67.85;99782.66;5023644;28;20527;-59
2024/02/22 08:40:55;;;;;;;38.08;13.32;;;;;;;-0.15;68.25;99780.94;5004811;28;20521;-52
2024/02/22 08:43:21;;;;;;;35.42;12.10;;;;;;;-0.27;67.77;99748.50;5006866;28;20072;-54
2024/02/22 08:45:48;;;;;;;36.97;12.13;;;;;;;-0.41;67.98;99750.03;5024014;28;20049;-56
2024/02/22 08:48:14;;;;;;;31.65;14.45;;;;;;;-0.09;68.40;99778.44;5023421;28;20063;-54
2024/02/22 08:50:41;;;;;;;42.45;13.43;;;;;;;-0.06;68.30;99781.06;5021872;28;20041;-55
2024/02/22 08:53:07;;;;;;;33.83;12.52;;;;;;;-0.18;68.37;99758.78;5025349;28;20468;-54
2024/02/22 08:55:33;;;;;;;34.50;12.32;;;;;;;-0.15;68.34;99776.69;5007844;28;20104;-57
2024/02/22 08:57:59;;;;;;;37.83;12.45;;;;;;;-0.04;68.40;99779.34;4990672;28;20476;-53
2024/02/22 09:00:25;;;;;;;35.25;13.75;;;;;;;0.13;68.04;99771.84;5006911;28;20038;-51
2024/02/22 09:02:51;;;;;;;39.78;13.70;;;;;;;-0.20;67.95;99713.63;5025393;28;20533;-52
2024/02/22 09:05:19;;;;;;;44.20;15.30;;;;;;;0.14;67.74;99779.53;5023902;28;20045;-52
2024/02/22 09:07:46;;;;;;;38.67;14.05;;;;;;;0.05;67.83;99755.59;5023899;28;20144;-53
2024/02/22 09:10:15;;;;;;;33.90;12.23;;;;;;;0.13;68.05;99775.25;5022873;28;20037;-53
2024/02/22 09:12:43;;;;;;;35.03;13.15;;;;;;;-0.05;67.72;99750.38;5022526;28;20045;-50
2024/02/22 09:15:12;;;;;;;39.15;14.77;;;;;;;0.17;68.22;99774.44;5024018;28;20053;-53
2024/02/22 09:17:41;;;;;;;42.05;13.07;;;;;;;0.14;67.49;99788.91;5007483;28;20044;-53
2024/02/22 09:20:07;;;;;;;37.13;13.68;;;;;;;0.02;67.74;99784.53;4985844;28;20470;-55
2024/02/22 09:22:33;;;;;;;37.10;13.73;;;;;;;-0.02;68.28;99780.22;5024837;28;20135;-54
2024/02/22 09:24:59;;;;;;;36.47;13.10;;;;;;;-0.02;68.22;99773.44;5027823;28;20163;-52
2024/02/22 09:27:25;;;;;;;42.67;14.60;;;;;;;0.15;68.14;99771.03;5027793;28;20030;-54
2024/02/22 09:29:51;;;;;;;39.88;15.43;;;;;;;0.15;67.98;99742.91;5028617;28;20048;-53
2024/02/22 09:32:17;;;;;;;34.80;12.45;;;;;;;0.39;67.68;99778.03;5027341;28;20055;-55
2024/02/22 09:34:44;;;;;;;32.55;11.90;;;;;;;0.24;67.27;99771.09;5010163;28;20392;-54
2024/02/22 09:37:10;;;;;;;35.28;11.55;;;;;;;0.20;67.50;99763.41;5010256;28;20045;-51
2024/02/22 09:39:36;;;;;;;31.75;13.15;;;;;;;0.24;67.79;99776.22;5027875;28;20041;-55
2024/02/22 09:42:02;;;;;;;37.20;13.45;;;;;;;0.05;67.75;99733.47;5029043;28;20056;-52
2024/02/22 09:44:28;;;;;;;32.60;13.25;;;;;;;0.38;67.79;99774.63;5027771;28;20034;-58
2024/02/22 09:46:55;;;;;;;34.33;11.40;;;;;;;0.30;67.06;99775.41;5028659;28;20056;-52
2024/02/22 09:49:22;;;;;;;38.60;13.70;;;;;;;0.28;67.72;99771.97;5027158;28;20087;-53
2024/02/22 09:51:53;;;;;;;42.60;13.52;;;;;;;0.23;67.55;99774.50;5027101;28;20548;-49
2024/02/22 09:54:21;;;;;;;37.88;14.27;;;;;;;0.26;67.52;99766.84;5028327;28;20061;-56
2024/02/22 09:56:48;;;;;;;41.42;15.15;;;;;;;0.17;67.63;99769.31;5008717;28;20073;-57
2024/02/22 09:59:16;;;;;;;40.45;14.82;;;;;;;0.07;67.62;99744.53;5026889;28;20120;-52
2024/02/22 10:01:50;;;;;;;38.45;14.35;;;;;;;0.34;67.37;99772.03;5029509;28;20041;-52
2024/02/22 10:04:19;;;;;;;37.80;13.38;;;;;;;0.17;67.40;99730.13;5027400;28;20800;-55
2024/02/22 10:06:46;;;;;;;42.97;14.43;;;;;;;0.60;67.47;99772.22;5027625;28;20045;-56
2024/02/22 10:09:14;;;;;;;44.80;14.40;;;;;;;0.73;67.08;99762.06;5011057;28;20420;-50
2024/02/22 10:11:44;;;;;;;40.53;14.05;;;;;;;0.56;66.64;99757.69;5037847;28;20036;-56
2024/02/22 10:14:14;;;;;;;32.65;12.55;;;;;;;0.47;66.74;99755.09;5001200;28;20226;-55
2024/02/22 10:16:45;;;;;;;36.78;13.95;;;;;;;0.57;66.61;99765.41;5015765;28;20127;-53
2024/02/22 10:19:12;;;;;;;35.53;13.57;;;;;;;0.52;66.91;99756.84;5009233;28;20050;-52
2024/02/22 10:21:38;;;;;;;36.25;13.68;;;;;;;0.33;66.81;99702.13;4979367;28;20075;-54
2024/02/22 10:24:05;;;;;;;41.58;15.20;;;;;;;0.71;66.61;99761.22;5034939;28;20037;-54
2024/02/22 10:26:31;;;;;;;38.70;14.38;;;;;;;0.63;66.94;99755.19;5026913;28;20570;-53
2024/02/22 10:29:06;;;;;;;37.70;14.02;;;;;;;0.72;66.49;99759.53;5028588;28;20037;-58
2024/02/22 10:31:44;;;;;;;36.90;13.55;;;;;;;0.68;66.30;99753.50;5006444;28;20428;-56
2024/02/22 10:34:11;;;;;;;38.17;14.40;;;;;;;0.72;66.71;99747.59;5027247;28;20044;-53
2024/02/22 10:36:37;;;;;;;27.55;11.07;;;;;;;0.82;66.48;99753.59;5009880;28;20139;-54
2024/02/22 10:39:03;;;;;;;37.60;12.18;;;;;;;0.75;66.39;99760.38;5009761;28;20067;-53
2024/02/22 10:41:29;;;;;;;36.63;13.65;;;;;;;0.60;66.54;99754.31;5027376;28;20037;-52
2024/02/22 10:43:57;;;;;;;29.67;11.43;;;;;;;0.60;66.65;99752.63;5028072;28;20519;-56
2024/02/22 10:46:28;;;;;;;29.05;11.98;;;;;;;0.49;66.87;99761.91;5026981;28;20050;-54
2024/02/22 10:48:56;;;;;;;41.03;13.15;;;;;;;0.37;67.25;99760.13;5024582;28;20523;-52
2024/02/22 10:51:23;;;;;;;33.53;11.45;;;;;;;0.38;67.44;99754.16;5026334;28;20069;-53
2024/02/22 10:53:55;;;;;;;33.60;11.57;;;;;;;0.38;67.78;99759.28;5008688;28;20046;-54
2024/02/22 10:56:23;;;;;;;31.88;12.23;;;;;;;0.26;67.96;99761.72;5009531;28;20045;-52
2024/02/22 10:58:57;;;;;;;37.83;13.80;;;;;;;-0.09;68.06;99712.88;5024666;28;20049;-51
2024/02/22 11:01:26;;;;;;;41.33;14.73;;;;;;;0.12;68.44;99749.69;5025705;28;20049;-54
2024/02/22 11:03:52;;;;;;;25.67;11.73;;;;;;;0.24;68.33;99757.47;5009679;28;20051;-56
2024/02/22 11:06:21;;;;;;;37.50;13.32;;;;;;;0.17;68.69;99758.25;5027084;28;20033;-55
2024/02/22 11:08:49;;;;;;;37.25;14.05;;;;;;;0.13;69.08;99757.38;5009428;28;20044;-51
2024/02/22 11:11:39;;;;;;;35.67;14.55;;;;;;;0.34;68.58;99746.47;5026810;28;20148;-54
2024/02/22 11:14:06;;;;;;;33.50;12.95;;;;;;;0.35;68.77;99749.03;5024183;28;20052;-50
2024/02/22 11:16:33;;;;;;;40.85;15.73;;;;;;;0.49;68.61;99748.25;5024508;28;20421;-51
2024/02/22 11:19:10;;;;;;;40.05;15.35;;;;;;;0.52;68.16;99735.53;5025684;28;20044;-54